sensor_id;sensor_type;location;lat;lon;timestamp;P1;durP1;ratioP1;P2;durP2;ratioP2
8584;SDS011;7180;52.742;11.420;2022-10-22T00:01:52;17.27;;;16.07;;
8584;SDS011;7180;52.742;11.420;2022-10-22T00:04:18;17.90;;;16.50;;
8584;SDS011;7180;52.742;11.420;2022-10-22T00:06:43;18.10;;;16.80;;
8584;SDS011;7180;52.742;11.420;2022-10-22T00:09:09;18.03;;;16.70;;
8584;SDS011;7180;52.742;11.420;2022-10-22T00:11:34;17.40;;;16.20;;
8584;SDS011;7180;52.742;11.420;2022-10-22T00:13:59;17.33;;;16.17;;
8584;SDS011;7180;52.742;11.420;2022-10-22T00:16:25;16.93;;;15.80;;
8584;SDS011;7180;52.742;11.420;2022-10-22T00:18:50;17.20;;;16.00;;
8584;SDS011;7180;52.742;11.420;2022-10-22T00:21:15;16.73;;;15.63;;
8584;SDS011;7180;52.742;11.420;2022-10-22T00:23:41;16.93;;;15.73;;
8584;SDS011;7180;52.742;11.420;2022-10-22T00:26:06;17.23;;;16.13;;
8584;SDS011;7180;52.742;11.420;2022-10-22T00:28:32;16.90;;;15.70;;
8584;SDS011;7180;52.742;11.420;2022-10-22T00:30:57;17.30;;;16.10;;
8584;SDS011;7180;52.742;11.420;2022-10-22T00:33:23;17.53;;;16.13;;
8584;SDS011;7180;52.742;11.420;2022-10-22T00:35:49;16.57;;;15.43;;
8584;SDS011;7180;52.742;11.420;2022-10-22T00:38:14;16.90;;;15.70;;
8584;SDS011;7180;52.742;11.420;2022-10-22T00:40:39;17.03;;;15.90;;
8584;SDS011;7180;52.742;11.420;2022-10-22T00:43:04;16.30;;;15.20;;
8584;SDS011;7180;52.742;11.420;2022-10-22T00:45:29;16.33;;;15.23;;
8584;SDS011;7180;52.742;11.420;2022-10-22T00:48:05;17.07;;;15.87;;
8584;SDS011;7180;52.742;11.420;2022-10-22T00:50:39;17.30;;;16.00;;
8584;SDS011;7180;52.742;11.420;2022-10-22T00:53:06;17.17;;;15.87;;
8584;SDS011;7180;52.742;11.420;2022-10-22T00:55:32;17.57;;;16.17;;
8584;SDS011;7180;52.742;11.420;2022-10-22T00:57:57;19.07;;;17.67;;
8584;SDS011;7180;52.742;11.420;2022-10-22T01:00:23;17.97;;;16.67;;
8584;SDS011;7180;52.742;11.420;2022-10-22T01:02:49;18.50;;;17.10;;
8584;SDS011;7180;52.742;11.420;2022-10-22T01:05:14;18.70;;;17.23;;
8584;SDS011;7180;52.742;11.420;2022-10-22T01:07:41;19.03;;;17.57;;
8584;SDS011;7180;52.742;11.420;2022-10-22T01:10:14;18.13;;;16.80;;
8584;SDS011;7180;52.742;11.420;2022-10-22T01:12:44;16.87;;;15.77;;
8584;SDS011;7180;52.742;11.420;2022-10-22T01:15:15;19.20;;;17.63;;
8584;SDS011;7180;52.742;11.420;2022-10-22T01:17:53;19.00;;;17.60;;
8584;SDS011;7180;52.742;11.420;2022-10-22T01:20:33;19.10;;;17.70;;
8584;SDS011;7180;52.742;11.420;2022-10-22T01:30:34;18.77;;;17.40;;
8584;SDS011;7180;52.742;11.420;2022-10-22T01:33:01;19.13;;;17.73;;
8584;SDS011;7180;52.742;11.420;2022-10-22T01:35:28;19.87;;;18.37;;
8584;SDS011;7180;52.742;11.420;2022-10-22T01:37:55;20.23;;;18.60;;
8584;SDS011;7180;52.742;11.420;2022-10-22T01:40:22;20.83;;;19.10;;
8584;SDS011;7180;52.742;11.420;2022-10-22T01:42:57;21.07;;;19.30;;
8584;SDS011;7180;52.742;11.420;2022-10-22T01:45:23;21.13;;;19.43;;
8584;SDS011;7180;52.742;11.420;2022-10-22T02:00:37;19.90;;;18.40;;
8584;SDS011;7180;52.742;11.420;2022-10-22T02:03:12;19.83;;;18.33;;
8584;SDS011;7180;52.742;11.420;2022-10-22T02:05:41;18.83;;;17.43;;
8584;SDS011;7180;52.742;11.420;2022-10-22T02:08:09;19.40;;;18.00;;
8584;SDS011;7180;52.742;11.420;2022-10-22T02:10:38;18.97;;;17.40;;
8584;SDS011;7180;52.742;11.420;2022-10-22T02:13:06;18.23;;;16.93;;
8584;SDS011;7180;52.742;11.420;2022-10-22T02:15:32;19.60;;;18.13;;
8584;SDS011;7180;52.742;11.420;2022-10-22T02:17:59;18.40;;;17.10;;
8584;SDS011;7180;52.742;11.420;2022-10-22T02:20:26;18.70;;;17.40;;
8584;SDS011;7180;52.742;11.420;2022-10-22T02:22:52;18.97;;;17.47;;
8584;SDS011;7180;52.742;11.420;2022-10-22T02:25:17;18.60;;;17.20;;
8584;SDS011;7180;52.742;11.420;2022-10-22T02:27:50;18.67;;;17.27;;
8584;SDS011;7180;52.742;11.420;2022-10-22T02:30:20;19.07;;;17.67;;
8584;SDS011;7180;52.742;11.420;2022-10-22T02:32:49;18.37;;;16.97;;
8584;SDS011;7180;52.742;11.420;2022-10-22T02:35:17;17.60;;;16.40;;
8584;SDS011;7180;52.742;11.420;2022-10-22T02:37:43;17.90;;;16.70;;
8584;SDS011;7180;52.742;11.420;2022-10-22T02:40:09;18.27;;;16.93;;
8584;SDS011;7180;52.742;11.420;2022-10-22T02:42:34;17.70;;;16.47;;
8584;SDS011;7180;52.742;11.420;2022-10-22T02:45:01;18.40;;;17.00;;
8584;SDS011;7180;52.742;11.420;2022-10-22T02:47:26;18.43;;;17.13;;
8584;SDS011;7180;52.742;11.420;2022-10-22T02:49:51;18.90;;;17.50;;
8584;SDS011;7180;52.742;11.420;2022-10-22T02:52:16;17.40;;;16.20;;
8584;SDS011;7180;52.742;11.420;2022-10-22T02:54:41;19.30;;;17.90;;
8584;SDS011;7180;52.742;11.420;2022-10-22T02:57:07;18.77;;;17.37;;
8584;SDS011;7180;52.742;11.420;2022-10-22T02:59:32;17.87;;;16.57;;
8584;SDS011;7180;52.742;11.420;2022-10-22T03:01:58;20.03;;;18.47;;
8584;SDS011;7180;52.742;11.420;2022-10-22T03:04:23;19.73;;;18.23;;
8584;SDS011;7180;52.742;11.420;2022-10-22T03:06:48;21.07;;;19.57;;
8584;SDS011;7180;52.742;11.420;2022-10-22T03:09:13;20.77;;;18.97;;
8584;SDS011;7180;52.742;11.420;2022-10-22T03:11:38;21.83;;;20.03;;
8584;SDS011;7180;52.742;11.420;2022-10-22T03:14:04;21.47;;;19.57;;
8584;SDS011;7180;52.742;11.420;2022-10-22T03:16:29;21.30;;;19.60;;
8584;SDS011;7180;52.742;11.420;2022-10-22T03:18:54;19.90;;;18.30;;
8584;SDS011;7180;52.742;11.420;2022-10-22T03:23:56;21.13;;;19.23;;
8584;SDS011;7180;52.742;11.420;2022-10-22T03:26:22;20.33;;;18.73;;
8584;SDS011;7180;52.742;11.420;2022-10-22T03:28:47;20.10;;;18.50;;
8584;SDS011;7180;52.742;11.420;2022-10-22T03:31:13;19.50;;;17.93;;
8584;SDS011;7180;52.742;11.420;2022-10-22T03:33:38;19.20;;;17.70;;
8584;SDS011;7180;52.742;11.420;2022-10-22T03:36:04;20.10;;;18.43;;
8584;SDS011;7180;52.742;11.420;2022-10-22T03:38:29;20.10;;;18.47;;
8584;SDS011;7180;52.742;11.420;2022-10-22T03:40:55;21.67;;;19.97;;
8584;SDS011;7180;52.742;11.420;2022-10-22T03:43:20;21.60;;;19.77;;
8584;SDS011;7180;52.742;11.420;2022-10-22T03:45:45;20.90;;;19.00;;
8584;SDS011;7180;52.742;11.420;2022-10-22T03:48:10;21.27;;;19.37;;
8584;SDS011;7180;52.742;11.420;2022-10-22T03:50:36;21.20;;;19.47;;
8584;SDS011;7180;52.742;11.420;2022-10-22T03:53:01;21.03;;;19.33;;
8584;SDS011;7180;52.742;11.420;2022-10-22T03:55:26;20.13;;;18.53;;
8584;SDS011;7180;52.742;11.420;2022-10-22T03:57:51;20.00;;;18.37;;
8584;SDS011;7180;52.742;11.420;2022-10-22T04:00:17;19.83;;;18.33;;
8584;SDS011;7180;52.742;11.420;2022-10-22T04:02:42;19.27;;;17.77;;
8584;SDS011;7180;52.742;11.420;2022-10-22T04:05:07;18.63;;;17.20;;
8584;SDS011;7180;52.742;11.420;2022-10-22T04:07:32;17.97;;;16.60;;
8584;SDS011;7180;52.742;11.420;2022-10-22T04:09:58;18.83;;;17.43;;
8584;SDS011;7180;52.742;11.420;2022-10-22T04:12:23;18.07;;;16.77;;
8584;SDS011;7180;52.742;11.420;2022-10-22T04:14:48;18.90;;;17.40;;
8584;SDS011;7180;52.742;11.420;2022-10-22T04:17:13;17.93;;;16.53;;
8584;SDS011;7180;52.742;11.420;2022-10-22T04:19:39;17.83;;;16.43;;
8584;SDS011;7180;52.742;11.420;2022-10-22T04:22:04;18.80;;;17.40;;
8584;SDS011;7180;52.742;11.420;2022-10-22T04:24:29;18.50;;;17.10;;
8584;SDS011;7180;52.742;11.420;2022-10-22T04:26:55;18.67;;;17.17;;
8584;SDS011;7180;52.742;11.420;2022-10-22T04:29:20;18.73;;;17.33;;
8584;SDS011;7180;52.742;11.420;2022-10-22T04:31:45;18.97;;;17.57;;
8584;SDS011;7180;52.742;11.420;2022-10-22T04:34:10;18.33;;;16.97;;
8584;SDS011;7180;52.742;11.420;2022-10-22T04:36:36;16.33;;;15.33;;
8584;SDS011;7180;52.742;11.420;2022-10-22T04:39:01;17.50;;;16.30;;
8584;SDS011;7180;52.742;11.420;2022-10-22T04:41:28;18.10;;;16.80;;
8584;SDS011;7180;52.742;11.420;2022-10-22T04:43:53;18.00;;;16.57;;
8584;SDS011;7180;52.742;11.420;2022-10-22T04:46:19;17.20;;;16.00;;
8584;SDS011;7180;52.742;11.420;2022-10-22T04:48:44;17.70;;;16.40;;
8584;SDS011;7180;52.742;11.420;2022-10-22T04:51:10;17.40;;;16.10;;
8584;SDS011;7180;52.742;11.420;2022-10-22T04:53:36;16.20;;;15.00;;
8584;SDS011;7180;52.742;11.420;2022-10-22T04:56:08;16.50;;;15.40;;
8584;SDS011;7180;52.742;11.420;2022-10-22T04:58:34;18.00;;;16.53;;
8584;SDS011;7180;52.742;11.420;2022-10-22T05:00:59;17.03;;;15.83;;
8584;SDS011;7180;52.742;11.420;2022-10-22T05:03:24;17.70;;;16.43;;
8584;SDS011;7180;52.742;11.420;2022-10-22T05:05:50;18.57;;;17.17;;
8584;SDS011;7180;52.742;11.420;2022-10-22T05:08:15;18.73;;;17.23;;
8584;SDS011;7180;52.742;11.420;2022-10-22T05:10:40;19.73;;;17.93;;
8584;SDS011;7180;52.742;11.420;2022-10-22T05:13:05;19.43;;;17.93;;
8584;SDS011;7180;52.742;11.420;2022-10-22T05:15:31;19.73;;;18.03;;
8584;SDS011;7180;52.742;11.420;2022-10-22T05:17:56;21.17;;;19.27;;
8584;SDS011;7180;52.742;11.420;2022-10-22T05:20:22;20.53;;;18.93;;
8584;SDS011;7180;52.742;11.420;2022-10-22T05:22:47;21.30;;;19.43;;
8584;SDS011;7180;52.742;11.420;2022-10-22T05:25:12;21.67;;;19.67;;
8584;SDS011;7180;52.742;11.420;2022-10-22T05:27:37;21.40;;;19.50;;
8584;SDS011;7180;52.742;11.420;2022-10-22T05:30:03;22.53;;;20.53;;
8584;SDS011;7180;52.742;11.420;2022-10-22T05:32:28;22.13;;;20.03;;
8584;SDS011;7180;52.742;11.420;2022-10-22T05:34:53;22.30;;;20.30;;
8584;SDS011;7180;52.742;11.420;2022-10-22T05:37:18;21.47;;;19.37;;
8584;SDS011;7180;52.742;11.420;2022-10-22T05:39:43;22.00;;;20.00;;
8584;SDS011;7180;52.742;11.420;2022-10-22T05:42:08;19.87;;;18.07;;
8584;SDS011;7180;52.742;11.420;2022-10-22T05:44:34;23.30;;;21.20;;
8584;SDS011;7180;52.742;11.420;2022-10-22T05:46:59;22.80;;;20.70;;
8584;SDS011;7180;52.742;11.420;2022-10-22T05:49:24;22.57;;;20.57;;
8584;SDS011;7180;52.742;11.420;2022-10-22T05:51:49;22.70;;;20.60;;
8584;SDS011;7180;52.742;11.420;2022-10-22T05:54:18;21.40;;;19.50;;
8584;SDS011;7180;52.742;11.420;2022-10-22T05:56:44;20.97;;;19.23;;
8584;SDS011;7180;52.742;11.420;2022-10-22T05:59:09;21.53;;;19.63;;
8584;SDS011;7180;52.742;11.420;2022-10-22T06:01:35;20.90;;;19.10;;
8584;SDS011;7180;52.742;11.420;2022-10-22T06:04:00;22.20;;;20.20;;
8584;SDS011;7180;52.742;11.420;2022-10-22T06:08:51;20.85;;;19.08;;
8584;SDS011;7180;52.742;11.420;2022-10-22T06:11:17;20.97;;;19.20;;
8584;SDS011;7180;52.742;11.420;2022-10-22T06:13:43;21.87;;;19.97;;
8584;SDS011;7180;52.742;11.420;2022-10-22T06:16:09;22.27;;;20.43;;
8584;SDS011;7180;52.742;11.420;2022-10-22T06:18:34;24.07;;;21.87;;
8584;SDS011;7180;52.742;11.420;2022-10-22T06:21:07;23.20;;;21.10;;
8584;SDS011;7180;52.742;11.420;2022-10-22T06:23:32;24.03;;;21.93;;
8584;SDS011;7180;52.742;11.420;2022-10-22T06:25:58;27.40;;;24.77;;
8584;SDS011;7180;52.742;11.420;2022-10-22T06:28:23;27.60;;;25.00;;
8584;SDS011;7180;52.742;11.420;2022-10-22T06:30:48;27.33;;;24.73;;
8584;SDS011;7180;52.742;11.420;2022-10-22T06:33:13;24.80;;;22.47;;
8584;SDS011;7180;52.742;11.420;2022-10-22T06:35:38;23.07;;;20.97;;
8584;SDS011;7180;52.742;11.420;2022-10-22T06:38:04;22.50;;;20.40;;
8584;SDS011;7180;52.742;11.420;2022-10-22T06:40:30;24.10;;;21.70;;
8584;SDS011;7180;52.742;11.420;2022-10-22T06:42:57;24.70;;;22.30;;
8584;SDS011;7180;52.742;11.420;2022-10-22T06:45:22;26.67;;;24.07;;
8584;SDS011;7180;52.742;11.420;2022-10-22T06:47:47;25.53;;;23.10;;
8584;SDS011;7180;52.742;11.420;2022-10-22T06:50:13;25.07;;;22.60;;
8584;SDS011;7180;52.742;11.420;2022-10-22T06:52:38;24.33;;;22.13;;
8584;SDS011;7180;52.742;11.420;2022-10-22T06:55:03;23.73;;;21.53;;
8584;SDS011;7180;52.742;11.420;2022-10-22T06:57:29;23.17;;;21.00;;
8584;SDS011;7180;52.742;11.420;2022-10-22T06:59:54;21.70;;;19.90;;
8584;SDS011;7180;52.742;11.420;2022-10-22T07:02:19;22.27;;;20.37;;
8584;SDS011;7180;52.742;11.420;2022-10-22T07:04:44;22.80;;;20.80;;
8584;SDS011;7180;52.742;11.420;2022-10-22T07:07:09;23.10;;;21.07;;
8584;SDS011;7180;52.742;11.420;2022-10-22T07:09:35;22.07;;;20.17;;
8584;SDS011;7180;52.742;11.420;2022-10-22T07:12:00;21.57;;;19.60;;
8584;SDS011;7180;52.742;11.420;2022-10-22T07:14:25;21.00;;;19.07;;
8584;SDS011;7180;52.742;11.420;2022-10-22T07:16:50;20.63;;;18.67;;
8584;SDS011;7180;52.742;11.420;2022-10-22T07:19:15;21.20;;;19.20;;
8584;SDS011;7180;52.742;11.420;2022-10-22T07:21:41;21.10;;;19.33;;
8584;SDS011;7180;52.742;11.420;2022-10-22T07:24:06;21.20;;;19.33;;
8584;SDS011;7180;52.742;11.420;2022-10-22T07:26:32;21.97;;;19.97;;
8584;SDS011;7180;52.742;11.420;2022-10-22T07:29:00;22.83;;;20.73;;
8584;SDS011;7180;52.742;11.420;2022-10-22T07:31:25;22.00;;;20.17;;
8584;SDS011;7180;52.742;11.420;2022-10-22T07:33:51;21.97;;;19.97;;
8584;SDS011;7180;52.742;11.420;2022-10-22T07:36:16;22.23;;;20.17;;
8584;SDS011;7180;52.742;11.420;2022-10-22T07:38:45;21.60;;;19.60;;
8584;SDS011;7180;52.742;11.420;2022-10-22T07:41:10;21.33;;;19.43;;
8584;SDS011;7180;52.742;11.420;2022-10-22T07:43:36;21.67;;;19.67;;
8584;SDS011;7180;52.742;11.420;2022-10-22T07:46:01;21.60;;;19.67;;
8584;SDS011;7180;52.742;11.420;2022-10-22T07:48:27;20.80;;;19.00;;
8584;SDS011;7180;52.742;11.420;2022-10-22T07:50:52;20.80;;;19.10;;
8584;SDS011;7180;52.742;11.420;2022-10-22T07:53:17;21.10;;;19.30;;
8584;SDS011;7180;52.742;11.420;2022-10-22T07:55:42;21.57;;;19.67;;
8584;SDS011;7180;52.742;11.420;2022-10-22T07:58:08;20.87;;;19.00;;
8584;SDS011;7180;52.742;11.420;2022-10-22T08:00:33;20.03;;;18.43;;
8584;SDS011;7180;52.742;11.420;2022-10-22T08:02:59;21.63;;;19.50;;
8584;SDS011;7180;52.742;11.420;2022-10-22T08:05:24;19.93;;;18.27;;
8584;SDS011;7180;52.742;11.420;2022-10-22T08:07:49;21.93;;;19.73;;
8584;SDS011;7180;52.742;11.420;2022-10-22T08:10:14;21.67;;;19.87;;
8584;SDS011;7180;52.742;11.420;2022-10-22T08:12:39;23.53;;;21.23;;
8584;SDS011;7180;52.742;11.420;2022-10-22T08:15:05;26.33;;;23.63;;
8584;SDS011;7180;52.742;11.420;2022-10-22T08:17:30;24.97;;;22.47;;
8584;SDS011;7180;52.742;11.420;2022-10-22T08:19:56;29.63;;;26.73;;
8584;SDS011;7180;52.742;11.420;2022-10-22T08:22:21;25.10;;;22.73;;
8584;SDS011;7180;52.742;11.420;2022-10-22T08:24:46;22.87;;;20.87;;
8584;SDS011;7180;52.742;11.420;2022-10-22T08:27:11;22.23;;;20.17;;
8584;SDS011;7180;52.742;11.420;2022-10-22T08:29:36;21.77;;;20.03;;
8584;SDS011;7180;52.742;11.420;2022-10-22T08:32:02;20.27;;;18.67;;
8584;SDS011;7180;52.742;11.420;2022-10-22T08:34:27;20.33;;;18.83;;
8584;SDS011;7180;52.742;11.420;2022-10-22T08:36:53;19.43;;;17.97;;
8584;SDS011;7180;52.742;11.420;2022-10-22T08:39:18;19.17;;;17.67;;
8584;SDS011;7180;52.742;11.420;2022-10-22T08:49:40;79.43;;;71.90;;
8584;SDS011;7180;52.742;11.420;2022-10-22T08:52:07;100.63;;;90.43;;
8584;SDS011;7180;52.742;11.420;2022-10-22T09:02:07;31.77;;;28.40;;
8584;SDS011;7180;52.742;11.420;2022-10-22T09:04:39;32.23;;;29.40;;
8584;SDS011;7180;52.742;11.420;2022-10-22T09:07:08;26.23;;;23.83;;
8584;SDS011;7180;52.742;11.420;2022-10-22T09:09:35;28.30;;;25.60;;
8584;SDS011;7180;52.742;11.420;2022-10-22T09:12:05;28.63;;;26.00;;
8584;SDS011;7180;52.742;11.420;2022-10-22T09:14:31;25.87;;;23.47;;
8584;SDS011;7180;52.742;11.420;2022-10-22T09:24:38;64.97;;;58.30;;
8584;SDS011;7180;52.742;11.420;2022-10-22T09:27:09;62.57;;;56.40;;
8584;SDS011;7180;52.742;11.420;2022-10-22T09:29:35;41.47;;;37.43;;
8584;SDS011;7180;52.742;11.420;2022-10-22T09:32:01;38.67;;;35.10;;
8584;SDS011;7180;52.742;11.420;2022-10-22T09:34:27;53.60;;;48.13;;
8584;SDS011;7180;52.742;11.420;2022-10-22T09:36:59;39.07;;;34.93;;
8584;SDS011;7180;52.742;11.420;2022-10-22T09:39:26;24.37;;;22.30;;
8584;SDS011;7180;52.742;11.420;2022-10-22T09:41:52;23.77;;;21.73;;
8584;SDS011;7180;52.742;11.420;2022-10-22T09:44:18;23.63;;;21.40;;
8584;SDS011;7180;52.742;11.420;2022-10-22T09:46:43;29.07;;;26.10;;
8584;SDS011;7180;52.742;11.420;2022-10-22T09:49:11;35.70;;;32.03;;
8584;SDS011;7180;52.742;11.420;2022-10-22T09:51:53;34.00;;;30.17;;
8584;SDS011;7180;52.742;11.420;2022-10-22T09:54:20;17.70;;;16.30;;
8584;SDS011;7180;52.742;11.420;2022-10-22T09:56:50;23.33;;;21.27;;
8584;SDS011;7180;52.742;11.420;2022-10-22T09:59:16;19.57;;;17.97;;
8584;SDS011;7180;52.742;11.420;2022-10-22T10:01:42;42.90;;;37.10;;
8584;SDS011;7180;52.742;11.420;2022-10-22T10:04:12;29.73;;;26.57;;
8584;SDS011;7180;52.742;11.420;2022-10-22T10:06:39;21.20;;;19.20;;
8584;SDS011;7180;52.742;11.420;2022-10-22T10:09:08;18.47;;;16.97;;
8584;SDS011;7180;52.742;11.420;2022-10-22T10:12:20;20.93;;;19.20;;
8584;SDS011;7180;52.742;11.420;2022-10-22T10:19:25;15.30;;;14.18;;
8584;SDS011;7180;52.742;11.420;2022-10-22T10:24:27;14.17;;;13.07;;
8584;SDS011;7180;52.742;11.420;2022-10-22T10:26:58;13.87;;;12.77;;
8584;SDS011;7180;52.742;11.420;2022-10-22T10:32:15;14.07;;;12.97;;
8584;SDS011;7180;52.742;11.420;2022-10-22T10:45:02;12.53;;;11.43;;
8584;SDS011;7180;52.742;11.420;2022-10-22T10:47:40;12.97;;;11.87;;
8584;SDS011;7180;52.742;11.420;2022-10-22T10:50:17;12.57;;;11.60;;
8584;SDS011;7180;52.742;11.420;2022-10-22T10:52:49;11.43;;;10.73;;
8584;SDS011;7180;52.742;11.420;2022-10-22T10:55:31;13.70;;;12.50;;
8584;SDS011;7180;52.742;11.420;2022-10-22T11:00:39;12.20;;;11.17;;
8584;SDS011;7180;52.742;11.420;2022-10-22T11:03:15;11.33;;;10.63;;
8584;SDS011;7180;52.742;11.420;2022-10-22T11:05:49;12.10;;;11.20;;
8584;SDS011;7180;52.742;11.420;2022-10-22T11:15:59;11.23;;;10.53;;
8584;SDS011;7180;52.742;11.420;2022-10-22T11:18:29;11.20;;;10.47;;
8584;SDS011;7180;52.742;11.420;2022-10-22T11:23:27;11.07;;;10.17;;
8584;SDS011;7180;52.742;11.420;2022-10-22T11:25:54;12.17;;;11.27;;
8584;SDS011;7180;52.742;11.420;2022-10-22T11:28:22;11.17;;;10.37;;
8584;SDS011;7180;52.742;11.420;2022-10-22T11:30:52;11.20;;;10.37;;
8584;SDS011;7180;52.742;11.420;2022-10-22T11:33:21;12.30;;;11.50;;
8584;SDS011;7180;52.742;11.420;2022-10-22T11:35:47;16.83;;;15.40;;
8584;SDS011;7180;52.742;11.420;2022-10-22T11:38:17;13.83;;;12.70;;
8584;SDS011;7180;52.742;11.420;2022-10-22T11:40:46;17.97;;;16.47;;
8584;SDS011;7180;52.742;11.420;2022-10-22T11:43:26;15.10;;;14.10;;
8584;SDS011;7180;52.742;11.420;2022-10-22T11:45:55;12.40;;;11.50;;
8584;SDS011;7180;52.742;11.420;2022-10-22T11:48:21;11.33;;;10.23;;
8584;SDS011;7180;52.742;11.420;2022-10-22T11:53:35;10.93;;;9.80;;
8584;SDS011;7180;52.742;11.420;2022-10-22T11:58:32;11.23;;;10.10;;
8584;SDS011;7180;52.742;11.420;2022-10-22T12:06:47;9.57;;;8.87;;
8584;SDS011;7180;52.742;11.420;2022-10-22T12:11:20;9.27;;;8.63;;
8584;SDS011;7180;52.742;11.420;2022-10-22T12:16:17;9.10;;;8.50;;
8584;SDS011;7180;52.742;11.420;2022-10-22T12:18:43;9.67;;;8.90;;
8584;SDS011;7180;52.742;11.420;2022-10-22T12:21:12;9.47;;;8.87;;
8584;SDS011;7180;52.742;11.420;2022-10-22T12:23:38;9.60;;;8.90;;
8584;SDS011;7180;52.742;11.420;2022-10-22T12:26:03;9.37;;;8.73;;
8584;SDS011;7180;52.742;11.420;2022-10-22T12:28:35;9.17;;;8.57;;
8584;SDS011;7180;52.742;11.420;2022-10-22T12:31:01;9.67;;;8.87;;
8584;SDS011;7180;52.742;11.420;2022-10-22T12:33:26;9.27;;;8.67;;
8584;SDS011;7180;52.742;11.420;2022-10-22T12:35:53;9.40;;;8.60;;
8584;SDS011;7180;52.742;11.420;2022-10-22T12:38:21;10.73;;;9.73;;
8584;SDS011;7180;52.742;11.420;2022-10-22T12:40:49;9.70;;;9.00;;
8584;SDS011;7180;52.742;11.420;2022-10-22T12:43:18;10.03;;;9.20;;
8584;SDS011;7180;52.742;11.420;2022-10-22T12:45:44;10.13;;;9.30;;
8584;SDS011;7180;52.742;11.420;2022-10-22T12:48:14;12.87;;;11.77;;
8584;SDS011;7180;52.742;11.420;2022-10-22T12:50:41;28.80;;;26.10;;
8584;SDS011;7180;52.742;11.420;2022-10-22T12:53:16;13.97;;;12.63;;
8584;SDS011;7180;52.742;11.420;2022-10-22T12:55:43;11.87;;;10.90;;
8584;SDS011;7180;52.742;11.420;2022-10-22T12:58:11;12.13;;;11.33;;
8584;SDS011;7180;52.742;11.420;2022-10-22T13:00:40;9.87;;;8.97;;
8584;SDS011;7180;52.742;11.420;2022-10-22T13:03:05;11.20;;;10.33;;
8584;SDS011;7180;52.742;11.420;2022-10-22T13:05:32;11.63;;;10.93;;
8584;SDS011;7180;52.742;11.420;2022-10-22T13:08:12;9.70;;;9.10;;
8584;SDS011;7180;52.742;11.420;2022-10-22T13:10:47;11.40;;;10.60;;
8584;SDS011;7180;52.742;11.420;2022-10-22T13:16:21;10.77;;;10.10;;
8584;SDS011;7180;52.742;11.420;2022-10-22T13:18:48;14.07;;;12.97;;
8584;SDS011;7180;52.742;11.420;2022-10-22T13:21:21;10.80;;;10.20;;
8584;SDS011;7180;52.742;11.420;2022-10-22T13:23:51;11.20;;;10.47;;
8584;SDS011;7180;52.742;11.420;2022-10-22T13:26:16;11.10;;;10.20;;
8584;SDS011;7180;52.742;11.420;2022-10-22T13:28:44;10.50;;;9.80;;
8584;SDS011;7180;52.742;11.420;2022-10-22T13:31:17;10.63;;;9.83;;
8584;SDS011;7180;52.742;11.420;2022-10-22T13:33:44;10.50;;;9.70;;
8584;SDS011;7180;52.742;11.420;2022-10-22T13:36:13;10.63;;;9.87;;
8584;SDS011;7180;52.742;11.420;2022-10-22T13:38:39;10.10;;;9.40;;
8584;SDS011;7180;52.742;11.420;2022-10-22T13:41:16;9.80;;;9.20;;
8584;SDS011;7180;52.742;11.420;2022-10-22T13:43:41;11.40;;;10.50;;
8584;SDS011;7180;52.742;11.420;2022-10-22T13:46:07;9.10;;;8.60;;
8584;SDS011;7180;52.742;11.420;2022-10-22T13:48:32;9.63;;;9.03;;
8584;SDS011;7180;52.742;11.420;2022-10-22T13:50:57;10.43;;;9.73;;
8584;SDS011;7180;52.742;11.420;2022-10-22T13:53:24;11.27;;;10.50;;
8584;SDS011;7180;52.742;11.420;2022-10-22T13:55:49;14.80;;;13.43;;
8584;SDS011;7180;52.742;11.420;2022-10-22T13:58:16;13.60;;;12.50;;
8584;SDS011;7180;52.742;11.420;2022-10-22T14:00:42;16.97;;;15.77;;
8584;SDS011;7180;52.742;11.420;2022-10-22T14:03:12;14.43;;;13.33;;
8584;SDS011;7180;52.742;11.420;2022-10-22T14:05:39;17.23;;;15.90;;
8584;SDS011;7180;52.742;11.420;2022-10-22T14:08:08;17.90;;;16.50;;
8584;SDS011;7180;52.742;11.420;2022-10-22T14:10:33;19.40;;;17.80;;
8584;SDS011;7180;52.742;11.420;2022-10-22T14:12:58;18.33;;;16.87;;
8584;SDS011;7180;52.742;11.420;2022-10-22T14:15:24;14.27;;;13.27;;
8584;SDS011;7180;52.742;11.420;2022-10-22T14:17:55;13.70;;;12.80;;
8584;SDS011;7180;52.742;11.420;2022-10-22T14:20:22;15.03;;;13.83;;
8584;SDS011;7180;52.742;11.420;2022-10-22T14:22:49;14.40;;;13.30;;
8584;SDS011;7180;52.742;11.420;2022-10-22T14:25:15;41.60;;;35.33;;
8584;SDS011;7180;52.742;11.420;2022-10-22T14:27:41;39.57;;;32.80;;
8584;SDS011;7180;52.742;11.420;2022-10-22T14:30:07;19.93;;;17.83;;
8584;SDS011;7180;52.742;11.420;2022-10-22T14:32:32;19.37;;;17.53;;
8584;SDS011;7180;52.742;11.420;2022-10-22T14:34:57;15.77;;;14.37;;
8584;SDS011;7180;52.742;11.420;2022-10-22T14:37:23;16.23;;;14.97;;
8584;SDS011;7180;52.742;11.420;2022-10-22T14:39:49;14.10;;;13.07;;
8584;SDS011;7180;52.742;11.420;2022-10-22T14:42:16;11.83;;;11.03;;
8584;SDS011;7180;52.742;11.420;2022-10-22T14:44:42;17.57;;;16.27;;
8584;SDS011;7180;52.742;11.420;2022-10-22T14:47:07;14.00;;;13.00;;
8584;SDS011;7180;52.742;11.420;2022-10-22T14:49:32;13.73;;;12.60;;
8584;SDS011;7180;52.742;11.420;2022-10-22T14:51:57;13.53;;;12.37;;
8584;SDS011;7180;52.742;11.420;2022-10-22T14:54:22;16.33;;;13.73;;
8584;SDS011;7180;52.742;11.420;2022-10-22T14:56:48;18.13;;;15.73;;
8584;SDS011;7180;52.742;11.420;2022-10-22T14:59:13;13.03;;;11.73;;
8584;SDS011;7180;52.742;11.420;2022-10-22T15:01:38;14.73;;;13.43;;
8584;SDS011;7180;52.742;11.420;2022-10-22T15:04:03;12.37;;;11.23;;
8584;SDS011;7180;52.742;11.420;2022-10-22T15:06:29;11.50;;;10.50;;
8584;SDS011;7180;52.742;11.420;2022-10-22T15:08:54;11.70;;;10.70;;
8584;SDS011;7180;52.742;11.420;2022-10-22T15:11:19;12.03;;;11.13;;
8584;SDS011;7180;52.742;11.420;2022-10-22T15:13:46;12.20;;;11.30;;
8584;SDS011;7180;52.742;11.420;2022-10-22T15:16:11;12.20;;;11.30;;
8584;SDS011;7180;52.742;11.420;2022-10-22T15:18:37;11.93;;;11.03;;
8584;SDS011;7180;52.742;11.420;2022-10-22T15:21:03;12.17;;;11.23;;
8584;SDS011;7180;52.742;11.420;2022-10-22T15:23:29;11.60;;;10.80;;
8584;SDS011;7180;52.742;11.420;2022-10-22T15:25:54;12.40;;;11.50;;
8584;SDS011;7180;52.742;11.420;2022-10-22T15:28:19;14.20;;;12.70;;
8584;SDS011;7180;52.742;11.420;2022-10-22T15:30:50;12.83;;;11.80;;
8584;SDS011;7180;52.742;11.420;2022-10-22T15:33:15;12.53;;;11.60;;
8584;SDS011;7180;52.742;11.420;2022-10-22T15:35:41;11.87;;;11.07;;
8584;SDS011;7180;52.742;11.420;2022-10-22T15:38:06;11.93;;;11.03;;
8584;SDS011;7180;52.742;11.420;2022-10-22T15:40:33;14.73;;;13.33;;
8584;SDS011;7180;52.742;11.420;2022-10-22T15:42:58;20.13;;;17.00;;
8584;SDS011;7180;52.742;11.420;2022-10-22T15:45:23;23.43;;;19.10;;
8584;SDS011;7180;52.742;11.420;2022-10-22T15:47:49;20.73;;;18.63;;
8584;SDS011;7180;52.742;11.420;2022-10-22T15:50:15;19.50;;;17.60;;
8584;SDS011;7180;52.742;11.420;2022-10-22T15:52:40;16.67;;;15.17;;
8584;SDS011;7180;52.742;11.420;2022-10-22T15:55:05;15.57;;;14.23;;
8584;SDS011;7180;52.742;11.420;2022-10-22T15:57:34;15.60;;;14.30;;
8584;SDS011;7180;52.742;11.420;2022-10-22T15:59:59;15.00;;;13.67;;
8584;SDS011;7180;52.742;11.420;2022-10-22T16:02:24;16.13;;;14.53;;
8584;SDS011;7180;52.742;11.420;2022-10-22T16:04:49;23.30;;;19.80;;
8584;SDS011;7180;52.742;11.420;2022-10-22T16:07:15;24.90;;;20.53;;
8584;SDS011;7180;52.742;11.420;2022-10-22T16:09:40;24.17;;;21.07;;
8584;SDS011;7180;52.742;11.420;2022-10-22T16:12:05;21.73;;;19.43;;
8584;SDS011;7180;52.742;11.420;2022-10-22T16:14:30;27.70;;;24.70;;